createdAt,value
2023-04-29T00:00:55.761Z,100.00
2023-04-29T00:03:23.620Z,100.00
2023-04-29T00:05:51.483Z,100.00
2023-04-29T00:08:19.372Z,100.00
2023-04-29T00:10:47.080Z,100.00
2023-04-29T00:13:14.805Z,100.00
2023-04-29T00:15:43.145Z,100.00
2023-04-29T00:18:13.885Z,100.00
2023-04-29T00:20:43.258Z,100.00
2023-04-29T00:23:10.943Z,100.00
2023-04-29T00:25:39.058Z,100.00
2023-04-29T00:28:06.796Z,100.00
2023-04-29T00:30:34.839Z,100.00
2023-04-29T00:33:03.122Z,100.00
2023-04-29T00:35:32.174Z,100.00
2023-04-29T00:38:00.160Z,100.00
2023-04-29T00:40:29.216Z,100.00
2023-04-29T00:42:57.255Z,100.00
2023-04-29T00:45:25.215Z,100.00
2023-04-29T00:47:53.053Z,100.00
2023-04-29T00:50:21.001Z,100.00
2023-04-29T00:52:50.452Z,100.00
2023-04-29T00:55:18.651Z,100.00
2023-04-29T00:57:48.259Z,100.00
2023-04-29T01:00:17.247Z,100.00
2023-04-29T01:02:46.896Z,100.00
2023-04-29T01:05:15.137Z,100.00
2023-04-29T01:07:50.140Z,100.00
2023-04-29T01:10:28.207Z,100.00
2023-04-29T01:13:05.793Z,100.00
2023-04-29T01:15:41.004Z,100.00
2023-04-29T01:18:12.809Z,100.00
2023-04-29T01:20:42.076Z,100.00
2023-04-29T01:23:09.792Z,100.00
2023-04-29T01:25:39.360Z,100.00
2023-04-29T01:28:14.962Z,100.00
2023-04-29T01:30:51.419Z,100.00
2023-04-29T01:33:30.028Z,100.00
2023-04-29T01:36:15.557Z,100.00
2023-04-29T01:38:48.547Z,100.00
2023-04-29T01:41:24.609Z,100.00
2023-04-29T01:43:53.633Z,100.00
2023-04-29T01:46:21.524Z,100.00
2023-04-29T01:48:49.307Z,100.00
2023-04-29T01:51:17.013Z,100.00
2023-04-29T01:53:44.763Z,100.00
2023-04-29T01:56:12.535Z,100.00
2023-04-29T01:58:41.622Z,100.00
2023-04-29T02:01:10.500Z,100.00
2023-04-29T02:03:39.187Z,100.00
2023-04-29T02:06:08.047Z,100.00
2023-04-29T02:08:35.751Z,100.00
2023-04-29T02:11:03.511Z,100.00
2023-04-29T02:13:31.996Z,100.00
2023-04-29T02:16:08.692Z,100.00
2023-04-29T02:18:36.563Z,100.00
2023-04-29T02:21:04.535Z,100.00
2023-04-29T02:23:32.353Z,100.00
2023-04-29T02:26:00.067Z,100.00
2023-04-29T02:28:27.814Z,100.00
2023-04-29T02:30:55.653Z,100.00
2023-04-29T02:33:24.769Z,100.00
2023-04-29T02:35:52.545Z,100.00
2023-04-29T02:38:20.260Z,100.00
2023-04-29T02:40:48.262Z,100.00
2023-04-29T02:43:15.971Z,100.00
2023-04-29T02:45:43.687Z,100.00
2023-04-29T02:48:11.528Z,100.00
2023-04-29T02:50:40.693Z,100.00
2023-04-29T02:53:08.352Z,100.00
2023-04-29T02:55:36.101Z,100.00
2023-04-29T02:58:03.915Z,100.00
2023-04-29T03:00:31.661Z,100.00
2023-04-29T03:02:59.434Z,100.00
2023-04-29T03:05:27.375Z,100.00
2023-04-29T03:07:56.777Z,100.00
2023-04-29T03:10:24.746Z,100.00
2023-04-29T03:12:52.650Z,100.00
2023-04-29T03:15:20.533Z,100.00
2023-04-29T03:17:48.552Z,100.00
2023-04-29T03:20:16.381Z,100.00
2023-04-29T03:22:44.205Z,100.00
2023-04-29T03:25:13.636Z,100.00
2023-04-29T03:27:41.942Z,100.00
2023-04-29T03:30:10.491Z,100.00
2023-04-29T03:32:38.446Z,100.00
2023-04-29T03:35:07.178Z,100.00
2023-04-29T03:37:34.903Z,100.00
2023-04-29T03:40:02.610Z,100.00
2023-04-29T03:42:31.695Z,100.00
2023-04-29T03:44:59.424Z,100.00
2023-04-29T03:47:27.138Z,100.00
2023-04-29T03:49:55.095Z,100.00
2023-04-29T03:52:22.956Z,100.00
2023-04-29T03:54:50.612Z,100.00
2023-04-29T03:57:18.293Z,100.00
2023-04-29T03:59:50.553Z,100.00
2023-04-29T04:02:18.576Z,100.00
2023-04-29T04:04:46.739Z,100.00
2023-04-29T04:07:14.717Z,100.00
2023-04-29T04:09:42.453Z,100.00
2023-04-29T04:12:10.228Z,100.00
2023-04-29T04:14:37.978Z,100.00
2023-04-29T04:17:07.583Z,100.00
2023-04-29T04:19:35.387Z,100.00
2023-04-29T04:22:04.631Z,100.00
2023-04-29T04:24:32.354Z,100.00
2023-04-29T04:27:00.085Z,100.00
2023-04-29T04:29:27.796Z,100.00
2023-04-29T04:31:55.797Z,100.00
2023-04-29T04:34:24.995Z,100.00
2023-04-29T04:36:52.738Z,100.00
2023-04-29T04:39:20.484Z,100.00
2023-04-29T04:41:48.191Z,100.00
2023-04-29T04:44:16.584Z,100.00
2023-04-29T04:46:44.468Z,100.00
2023-04-29T04:49:12.084Z,100.00
2023-04-29T04:51:41.270Z,100.00
2023-04-29T04:54:09.109Z,100.00
2023-04-29T04:56:37.792Z,100.00
2023-04-29T04:59:05.622Z,100.00
2023-04-29T05:01:34.176Z,100.00
2023-04-29T05:04:02.900Z,100.00
2023-04-29T05:06:30.785Z,99.80
2023-04-29T05:08:59.946Z,99.89
2023-04-29T05:11:27.744Z,99.77
2023-04-29T05:13:55.556Z,100.00
2023-04-29T05:16:23.397Z,99.95
2023-04-29T05:18:51.225Z,99.89
2023-04-29T05:21:18.941Z,99.88
2023-04-29T05:23:46.747Z,99.35
2023-04-29T05:26:15.833Z,98.68
2023-04-29T05:28:43.576Z,98.72
2023-04-29T05:31:11.360Z,99.44
2023-04-29T05:33:39.202Z,100.00
2023-04-29T05:36:07.840Z,100.00
2023-04-29T05:38:35.614Z,100.00
2023-04-29T05:41:03.702Z,100.00
2023-04-29T05:43:33.171Z,100.00
2023-04-29T05:46:01.459Z,100.00
2023-04-29T05:48:29.960Z,99.11
2023-04-29T05:50:57.751Z,99.53
2023-04-29T05:53:25.587Z,99.15
2023-04-29T05:55:53.271Z,99.72
2023-04-29T05:58:20.955Z,98.90
2023-04-29T06:00:50.366Z,98.67
2023-04-29T06:03:18.245Z,97.94
2023-04-29T06:05:46.472Z,97.51
2023-04-29T06:08:14.538Z,95.91
2023-04-29T06:10:42.228Z,95.61
2023-04-29T06:13:10.140Z,96.02
2023-04-29T06:15:37.950Z,94.80
2023-04-29T06:18:07.114Z,94.00
2023-04-29T06:20:36.799Z,93.89
2023-04-29T06:23:05.991Z,92.95
2023-04-29T06:25:33.753Z,92.58
2023-04-29T06:28:02.136Z,91.82
2023-04-29T06:30:29.843Z,91.47
2023-04-29T06:32:57.870Z,91.19
2023-04-29T06:35:26.998Z,92.46
2023-04-29T06:37:56.636Z,93.02
2023-04-29T06:40:24.351Z,93.24
2023-04-29T06:42:52.649Z,93.52
2023-04-29T06:45:20.825Z,94.27
2023-04-29T06:47:48.563Z,94.75
2023-04-29T06:50:16.630Z,95.21
2023-04-29T06:52:45.745Z,95.11
2023-04-29T06:55:13.439Z,95.24
2023-04-29T06:57:41.115Z,95.23
2023-04-29T07:00:10.189Z,95.71
2023-04-29T07:02:39.089Z,95.84
2023-04-29T07:05:08.165Z,95.93
2023-04-29T07:07:35.918Z,95.33
2023-04-29T07:10:05.512Z,94.70
2023-04-29T07:12:33.271Z,92.57
2023-04-29T07:15:01.778Z,90.39
2023-04-29T07:17:31.073Z,89.67
2023-04-29T07:19:58.789Z,88.00
2023-04-29T07:22:26.810Z,86.55
2023-04-29T07:24:55.051Z,86.94
2023-04-29T07:27:24.596Z,84.90
2023-04-29T07:29:52.288Z,84.92
2023-04-29T07:32:20.053Z,83.70
2023-04-29T07:34:47.837Z,83.82
2023-04-29T07:37:15.740Z,84.78
2023-04-29T07:39:43.526Z,84.87
2023-04-29T07:42:11.382Z,85.11
2023-04-29T07:44:41.007Z,85.01
2023-04-29T07:47:08.851Z,84.91
2023-04-29T07:49:36.517Z,84.42
2023-04-29T07:52:06.140Z,84.50
2023-04-29T07:54:33.838Z,84.37
2023-04-29T07:57:03.573Z,84.66
2023-04-29T07:59:31.395Z,83.80
2023-04-29T08:02:00.544Z,83.67
2023-04-29T08:04:28.895Z,83.84
2023-04-29T08:06:56.994Z,83.83
2023-04-29T08:09:24.782Z,83.55
2023-04-29T08:11:52.546Z,83.31
2023-04-29T08:14:20.261Z,83.94
2023-04-29T08:16:48.498Z,83.85
2023-04-29T08:19:17.619Z,82.96
2023-04-29T08:21:45.354Z,83.38
2023-04-29T08:24:13.669Z,83.18
2023-04-29T08:26:42.459Z,82.32
2023-04-29T08:29:10.390Z,82.11
2023-04-29T08:31:38.138Z,81.79
2023-04-29T08:34:05.875Z,80.42
2023-04-29T08:36:37.014Z,81.13
2023-04-29T08:39:04.951Z,81.99
2023-04-29T08:41:33.680Z,82.00
2023-04-29T08:44:01.779Z,80.77
2023-04-29T08:46:30.044Z,81.80
2023-04-29T08:48:58.871Z,82.35
2023-04-29T08:51:26.680Z,81.70
2023-04-29T08:53:57.405Z,81.43
2023-04-29T08:56:27.847Z,81.65
2023-04-29T08:58:58.927Z,80.97
2023-04-29T09:01:28.903Z,81.24
2023-04-29T09:04:06.225Z,80.68
2023-04-29T09:06:34.400Z,80.45
2023-04-29T09:09:04.607Z,80.55
2023-04-29T09:11:33.283Z,79.12
2023-04-29T09:14:02.533Z,79.23
2023-04-29T09:16:30.827Z,78.06
2023-04-29T09:18:58.826Z,78.34
2023-04-29T09:21:28.795Z,77.80
2023-04-29T09:23:58.487Z,77.64
2023-04-29T09:26:28.445Z,78.30
2023-04-29T09:29:09.224Z,78.91
2023-04-29T09:31:39.293Z,76.66
2023-04-29T09:34:07.812Z,77.00
2023-04-29T09:36:41.053Z,77.54
2023-04-29T09:39:12.478Z,78.10
2023-04-29T09:41:43.633Z,77.10
2023-04-29T09:44:11.940Z,75.45
2023-04-29T09:46:39.627Z,75.29
2023-04-29T09:49:24.982Z,74.71
2023-04-29T09:51:57.280Z,73.81
2023-04-29T09:54:26.291Z,73.79
2023-04-29T09:56:56.160Z,74.36
2023-04-29T09:59:24.693Z,72.45
2023-04-29T10:01:56.953Z,72.81
2023-04-29T10:04:27.109Z,73.40
2023-04-29T10:06:56.131Z,73.30
2023-04-29T10:09:25.207Z,72.28
2023-04-29T10:11:55.366Z,71.11
2023-04-29T10:14:24.872Z,70.10
2023-04-29T10:17:03.765Z,69.37
2023-04-29T10:19:36.457Z,70.27
2023-04-29T10:22:08.421Z,68.52
2023-04-29T10:24:38.675Z,68.72
2023-04-29T10:27:08.842Z,68.38
2023-04-29T10:29:38.123Z,66.90
2023-04-29T10:32:09.838Z,65.89
2023-04-29T10:34:39.735Z,66.86
2023-04-29T10:37:09.686Z,67.23
2023-04-29T10:39:45.085Z,68.94
2023-04-29T10:42:25.258Z,65.94
2023-04-29T10:45:19.652Z,66.88
2023-04-29T10:48:13.077Z,66.46
2023-04-29T10:51:03.413Z,67.55
2023-04-29T10:53:31.550Z,68.27
2023-04-29T10:56:04.558Z,67.57
2023-04-29T10:58:44.308Z,68.20
2023-04-29T11:01:13.959Z,68.88
2023-04-29T11:03:50.208Z,67.82
2023-04-29T11:06:18.108Z,67.32
2023-04-29T11:08:45.899Z,68.68
2023-04-29T11:11:15.552Z,68.42
2023-04-29T11:13:47.982Z,69.48
2023-04-29T11:16:15.915Z,69.42
2023-04-29T11:19:08.054Z,71.28
2023-04-29T11:21:37.037Z,71.57
2023-04-29T11:24:06.409Z,71.48
2023-04-29T11:26:35.942Z,71.88
2023-04-29T11:29:06.234Z,72.36
2023-04-29T11:31:34.797Z,72.41
2023-04-29T11:34:02.960Z,72.20
2023-04-29T11:36:33.513Z,72.39
2023-04-29T11:39:01.812Z,71.97
2023-04-29T11:41:29.816Z,72.03
2023-04-29T11:43:58.723Z,72.21
2023-04-29T11:46:31.259Z,71.98
2023-04-29T11:49:00.526Z,72.87
2023-04-29T11:51:29.115Z,71.19
2023-04-29T11:53:58.823Z,71.65
2023-04-29T11:56:26.524Z,71.02
2023-04-29T11:58:57.687Z,70.58
2023-04-29T12:01:27.978Z,69.74
2023-04-29T12:04:00.019Z,69.48
2023-04-29T12:06:30.010Z,69.37
2023-04-29T12:09:00.474Z,69.25
2023-04-29T12:11:28.960Z,69.63
2023-04-29T12:13:57.067Z,67.79
2023-04-29T12:16:25.808Z,68.78
2023-04-29T12:18:55.247Z,66.89
2023-04-29T12:21:23.210Z,67.03
2023-04-29T12:23:52.651Z,67.10
2023-04-29T12:26:21.126Z,67.15
2023-04-29T12:28:55.552Z,65.84
2023-04-29T12:31:24.304Z,65.86
2023-04-29T12:33:57.656Z,65.70
2023-04-29T12:36:25.320Z,65.60
2023-04-29T12:38:54.733Z,65.63
2023-04-29T12:41:37.676Z,65.96
2023-04-29T12:44:05.348Z,65.77
2023-04-29T12:46:36.160Z,64.77
2023-04-29T12:49:06.129Z,65.13
2023-04-29T12:51:34.177Z,66.38
2023-04-29T12:54:03.743Z,65.02
2023-04-29T12:56:31.915Z,65.28
2023-04-29T12:59:06.572Z,64.27
2023-04-29T13:01:34.497Z,64.08
2023-04-29T13:04:02.333Z,64.83
2023-04-29T13:06:32.312Z,64.96
2023-04-29T13:09:00.065Z,65.07
2023-04-29T13:11:32.536Z,63.61
2023-04-29T13:14:02.313Z,64.75
2023-04-29T13:16:30.040Z,65.73
2023-04-29T13:19:05.266Z,64.14
2023-04-29T13:21:48.521Z,64.56
2023-04-29T13:24:18.314Z,65.16
2023-04-29T13:26:46.254Z,64.88
2023-04-29T13:29:14.037Z,64.32
2023-04-29T13:31:44.066Z,63.89
2023-04-29T13:34:11.932Z,63.43
2023-04-29T13:36:40.030Z,64.04
2023-04-29T13:39:10.571Z,63.00
2023-04-29T13:41:41.400Z,63.38
2023-04-29T13:44:23.605Z,62.08
2023-04-29T13:46:58.755Z,63.06
2023-04-29T13:59:40.004Z,60.64
2023-04-29T14:04:44.677Z,60.11
2023-04-29T14:07:12.592Z,60.09
2023-04-29T14:09:41.843Z,59.48
2023-04-29T14:12:09.634Z,59.33
2023-04-29T14:14:37.367Z,59.67
2023-04-29T14:17:05.167Z,60.09
2023-04-29T14:19:33.022Z,57.40
2023-04-29T14:22:00.709Z,58.26
2023-04-29T14:24:28.425Z,55.40
2023-04-29T14:26:57.946Z,53.91
2023-04-29T14:29:25.790Z,54.13
2023-04-29T14:31:53.579Z,54.34
2023-04-29T14:34:21.775Z,53.50
2023-04-29T14:36:49.453Z,54.04
2023-04-29T14:39:17.295Z,51.24
2023-04-29T14:41:45.155Z,52.31
2023-04-29T14:44:14.369Z,52.66
2023-04-29T14:46:42.366Z,51.73
2023-04-29T14:49:10.459Z,52.27
2023-04-29T14:51:38.244Z,53.83
2023-04-29T14:54:05.997Z,53.54
2023-04-29T14:56:33.707Z,55.33
2023-04-29T14:59:01.475Z,56.20
2023-04-29T15:01:32.104Z,57.10
2023-04-29T15:04:01.311Z,57.17
2023-04-29T15:06:29.472Z,58.80
2023-04-29T15:08:57.392Z,58.05
2023-04-29T15:11:26.178Z,59.44
2023-04-29T15:13:55.051Z,60.88
2023-04-29T15:16:22.876Z,61.41
2023-04-29T15:18:51.932Z,60.33
2023-04-29T15:21:19.560Z,60.21
2023-04-29T15:23:47.321Z,60.27
2023-04-29T15:26:15.079Z,60.34
2023-04-29T15:28:43.265Z,60.61
2023-04-29T15:31:11.117Z,61.51
2023-04-29T15:33:38.895Z,62.34
2023-04-29T15:36:08.443Z,64.33
2023-04-29T15:38:36.245Z,62.34
2023-04-29T15:41:04.029Z,62.64
2023-04-29T15:43:33.137Z,63.11
2023-04-29T15:46:01.089Z,62.95
2023-04-29T15:48:28.917Z,63.49
2023-04-29T15:50:57.006Z,64.13
2023-04-29T15:53:26.207Z,64.77
2023-04-29T15:55:54.681Z,64.16
2023-04-29T15:58:22.563Z,65.46
2023-04-29T16:00:51.884Z,64.74
2023-04-29T16:03:19.808Z,65.31
2023-04-29T16:05:47.600Z,64.61
2023-04-29T16:08:15.346Z,63.43
2023-04-29T16:10:45.337Z,63.97
2023-04-29T16:13:14.248Z,63.91
2023-04-29T16:15:42.050Z,63.08
2023-04-29T16:18:09.962Z,63.77
2023-04-29T16:20:37.826Z,64.19
2023-04-29T16:23:06.047Z,64.18
2023-04-29T16:25:33.795Z,64.64
2023-04-29T16:28:03.360Z,66.27
2023-04-29T16:30:31.079Z,66.37
2023-04-29T16:32:58.920Z,66.26
2023-04-29T16:35:29.008Z,66.56
2023-04-29T16:37:56.873Z,67.01
2023-04-29T16:40:25.106Z,66.58
2023-04-29T16:42:53.477Z,66.03
2023-04-29T16:45:23.887Z,66.57
2023-04-29T16:47:51.852Z,67.30
2023-04-29T16:50:19.917Z,68.21
2023-04-29T16:52:48.032Z,68.57
2023-04-29T16:55:15.833Z,68.08
2023-04-29T16:57:43.801Z,68.57
2023-04-29T17:00:12.594Z,68.55
2023-04-29T17:02:43.061Z,68.81
2023-04-29T17:05:11.429Z,69.83
2023-04-29T17:07:39.350Z,69.75
2023-04-29T17:10:08.308Z,70.06
2023-04-29T17:12:36.122Z,69.59
2023-04-29T17:15:04.597Z,70.10
2023-04-29T17:17:32.345Z,70.77
2023-04-29T17:20:01.367Z,71.53
2023-04-29T17:22:29.035Z,72.28
2023-04-29T17:24:56.983Z,71.14
2023-04-29T17:27:24.827Z,71.64
2023-04-29T17:29:53.504Z,72.32
2023-04-29T17:32:28.383Z,72.37
2023-04-29T17:34:56.591Z,72.12
2023-04-29T17:37:25.947Z,72.62
2023-04-29T17:39:53.953Z,73.02
2023-04-29T17:42:22.296Z,72.85
2023-04-29T17:44:50.068Z,73.82
2023-04-29T17:47:19.181Z,74.02
2023-04-29T17:49:47.605Z,74.02
2023-04-29T17:52:17.407Z,73.88
2023-04-29T17:54:46.502Z,74.01
2023-04-29T17:57:14.313Z,74.44
2023-04-29T17:59:42.159Z,75.26
2023-04-29T18:02:09.884Z,75.97
2023-04-29T18:04:38.152Z,76.56
2023-04-29T18:07:05.926Z,76.14
2023-04-29T18:09:34.641Z,76.46
2023-04-29T18:12:03.818Z,76.98
2023-04-29T18:14:32.003Z,77.65
2023-04-29T18:17:01.267Z,78.59
2023-04-29T18:19:29.517Z,78.76
2023-04-29T18:21:59.389Z,78.68
2023-04-29T18:24:28.562Z,79.21
2023-04-29T18:26:57.788Z,78.78
2023-04-29T18:29:27.179Z,78.28
2023-04-29T18:31:55.752Z,79.29
2023-04-29T18:34:23.952Z,79.31
2023-04-29T18:36:52.320Z,79.75
2023-04-29T18:39:20.299Z,80.09
2023-04-29T18:41:48.175Z,80.51
2023-04-29T18:44:16.094Z,80.32
2023-04-29T18:46:45.405Z,80.49
2023-04-29T18:49:16.586Z,81.45
2023-04-29T18:51:46.651Z,82.01
2023-04-29T18:54:16.458Z,82.65
2023-04-29T18:56:46.274Z,83.12
2023-04-29T18:59:15.905Z,83.54
2023-04-29T19:01:45.648Z,84.00
2023-04-29T19:04:13.809Z,83.96
2023-04-29T19:06:42.189Z,83.95
2023-04-29T19:09:11.090Z,83.58
2023-04-29T19:11:38.794Z,83.44
2023-04-29T19:14:07.526Z,83.50
2023-04-29T19:16:37.274Z,83.83
2023-04-29T19:19:06.711Z,83.79
2023-04-29T19:21:34.780Z,83.97
2023-04-29T19:24:02.885Z,83.76
2023-04-29T19:26:33.019Z,83.28
2023-04-29T19:29:02.629Z,82.12
2023-04-29T19:31:30.548Z,81.81
2023-04-29T19:33:58.413Z,81.10
2023-04-29T19:36:27.571Z,80.71
2023-04-29T19:38:55.394Z,80.62
2023-04-29T19:41:23.304Z,80.73
2023-04-29T19:43:51.274Z,80.85
2023-04-29T19:46:19.101Z,80.73
2023-04-29T19:48:46.894Z,80.55
2023-04-29T19:51:14.680Z,80.67
2023-04-29T19:53:43.810Z,80.79
2023-04-29T19:56:11.517Z,80.63
2023-04-29T19:58:39.283Z,80.40
2023-04-29T20:01:07.199Z,80.48
2023-04-29T20:03:37.290Z,80.86
2023-04-29T20:06:05.538Z,80.86
2023-04-29T20:08:33.430Z,81.22
2023-04-29T20:11:03.932Z,81.29
2023-04-29T20:13:31.734Z,81.47
2023-04-29T20:15:59.610Z,81.02
2023-04-29T20:18:27.454Z,81.47
2023-04-29T20:20:55.215Z,81.54
2023-04-29T20:23:23.151Z,81.54
2023-04-29T20:25:50.956Z,81.53
2023-04-29T20:28:20.047Z,80.42
2023-04-29T20:30:47.828Z,80.38
2023-04-29T20:33:16.003Z,80.72
2023-04-29T20:35:43.814Z,80.45
2023-04-29T20:38:11.944Z,80.33
2023-04-29T20:40:40.326Z,80.02
2023-04-29T20:43:08.091Z,79.97
2023-04-29T20:45:38.951Z,79.43
2023-04-29T20:48:07.414Z,79.90
2023-04-29T20:50:35.219Z,79.50
2023-04-29T20:53:03.315Z,79.11
2023-04-29T20:55:31.029Z,78.94
2023-04-29T20:57:58.766Z,79.42
2023-04-29T21:00:26.519Z,79.71
2023-04-29T21:02:55.706Z,79.36
2023-04-29T21:05:23.580Z,79.08
2023-04-29T21:07:51.296Z,78.67
2023-04-29T21:10:19.116Z,78.81
2023-04-29T21:12:46.835Z,78.92
2023-04-29T21:15:14.584Z,79.24
2023-04-29T21:17:42.399Z,79.11
2023-04-29T21:20:12.556Z,79.20
2023-04-29T21:22:40.332Z,79.38
2023-04-29T21:25:09.337Z,79.79
2023-04-29T21:27:37.119Z,79.69
2023-04-29T21:30:05.803Z,79.82
2023-04-29T21:32:33.972Z,79.46
2023-04-29T21:35:02.141Z,79.55
2023-04-29T21:37:31.904Z,79.94
2023-04-29T21:40:00.403Z,80.00
2023-04-29T21:42:28.312Z,79.43
2023-04-29T21:44:58.091Z,79.71
2023-04-29T21:47:25.940Z,80.41
2023-04-29T21:49:55.097Z,80.85
2023-04-29T21:52:23.341Z,80.78
2023-04-29T21:54:52.551Z,80.67
2023-04-29T21:57:26.366Z,80.55
2023-04-29T21:59:59.971Z,80.59
2023-04-29T22:02:37.978Z,80.39
2023-04-29T22:05:06.508Z,80.79
2023-04-29T22:07:34.225Z,80.67
2023-04-29T22:10:03.394Z,80.50
2023-04-29T22:12:31.184Z,80.43
2023-04-29T22:14:58.995Z,80.52
2023-04-29T22:17:26.832Z,80.37
2023-04-29T22:19:54.837Z,80.65
2023-04-29T22:22:22.686Z,80.12
2023-04-29T22:24:50.901Z,80.57
2023-04-29T22:27:20.020Z,80.65
2023-04-29T22:29:47.792Z,80.67
2023-04-29T22:32:15.633Z,81.35
2023-04-29T22:34:43.423Z,81.21
2023-04-29T22:37:11.125Z,81.15
2023-04-29T22:39:38.911Z,81.18
2023-04-29T22:42:07.049Z,81.05
2023-04-29T22:44:36.208Z,81.47
2023-04-29T22:47:04.248Z,81.37
2023-04-29T22:49:31.954Z,81.77
2023-04-29T22:51:59.651Z,82.18
2023-04-29T22:54:27.374Z,82.64
2023-04-29T22:56:55.154Z,82.51
2023-04-29T22:59:22.907Z,82.54
2023-04-29T23:01:52.567Z,82.70
2023-04-29T23:04:20.357Z,83.36
2023-04-29T23:06:48.200Z,82.83
2023-04-29T23:09:16.138Z,83.64
2023-04-29T23:11:43.931Z,83.57
2023-04-29T23:14:11.699Z,83.18
2023-04-29T23:16:39.538Z,83.50
2023-04-29T23:19:08.742Z,82.99
2023-04-29T23:21:36.410Z,82.88
2023-04-29T23:24:04.569Z,82.56
2023-04-29T23:26:32.622Z,82.30
2023-04-29T23:29:00.543Z,82.61
2023-04-29T23:31:28.328Z,82.91
2023-04-29T23:33:56.088Z,83.07
2023-04-29T23:36:25.268Z,82.99
2023-04-29T23:38:52.953Z,83.24
2023-04-29T23:41:20.798Z,83.17
2023-04-29T23:43:48.535Z,83.33
2023-04-29T23:46:16.411Z,83.46
2023-04-29T23:48:44.205Z,83.12
2023-04-29T23:51:11.912Z,83.42
2023-04-29T23:53:41.017Z,83.78
2023-04-29T23:56:09.175Z,83.69
2023-04-29T23:58:37.211Z,83.56
